Time;durP1;ratioP1;P1;durP2;ratioP2;P2;SDS_P1;SDS_P2;PMS_P1;PMS_P2;Temp;Humidity;BMP_temperature;BMP_pressure;BME280_temperature;BME280_humidity;BME280_pressure;Samples;Min_cycle;Max_cycle;Signal;HPM_P1;HPM_P2
2022/09/10 00:02:21;;;;;;;2.55;1.40;;;;;;;16.07;70.38;98858.31;5105516;28;20055;-72
2022/09/10 00:04:49;;;;;;;2.85;1.23;;;;;;;16.49;69.95;98951.88;5105454;28;20315;-72
2022/09/10 00:07:17;;;;;;;2.50;1.60;;;;;;;16.40;70.50;98955.34;5105816;28;20063;-72
2022/09/10 00:09:45;;;;;;;1.83;1.35;;;;;;;14.19;70.34;98608.91;5105763;28;20154;-72
2022/09/10 00:12:13;;;;;;;2.85;1.30;;;;;;;16.03;70.56;98937.91;5105699;28;20063;-71
2022/09/10 00:14:41;;;;;;;2.60;1.48;;;;;;;15.55;70.38;98854.66;5105313;28;20063;-72
2022/09/10 00:17:10;;;;;;;4.82;1.80;;;;;;;16.23;70.10;98938.91;5105242;28;20320;-72
2022/09/10 00:19:38;;;;;;;1.95;1.35;;;;;;;16.27;69.68;98939.50;5105375;28;20066;-72
2022/09/10 00:22:05;;;;;;;2.15;1.35;;;;;;;16.36;70.01;98934.22;5105465;28;20056;-72
2022/09/10 00:24:33;;;;;;;2.78;1.40;;;;;;;16.36;69.55;98918.16;5105344;28;20331;-72
2022/09/10 00:27:01;;;;;;;2.40;1.48;;;;;;;16.53;70.29;98934.59;5105649;28;20209;-72
2022/09/10 00:29:30;;;;;;;2.30;1.42;;;;;;;15.81;69.80;98806.25;5105602;28;20063;-71
2022/09/10 00:31:57;;;;;;;2.20;1.20;;;;;;;16.51;69.56;98931.19;5105661;28;20063;-72
2022/09/10 00:34:27;;;;;;;1.65;1.10;;;;;;;16.53;69.88;98937.25;5105555;28;20063;-72
2022/09/10 00:36:54;;;;;;;2.50;1.52;;;;;;;16.58;70.28;98925.19;5105583;28;20051;-73
2022/09/10 00:39:21;;;;;;;2.47;1.30;;;;;;;16.59;70.51;98934.06;5105540;28;20056;-72
2022/09/10 00:41:49;;;;;;;2.38;1.30;;;;;;;16.57;70.51;98941.38;5105379;28;20212;-72
2022/09/10 00:44:56;;;;;;;2.45;1.30;;;;;;;16.60;69.51;98938.41;5105541;28;20331;-71
2022/09/10 00:47:28;;;;;;;3.17;1.40;;;;;;;16.56;69.47;98931.63;5107007;28;20062;-72
2022/09/10 00:50:03;;;;;;;4.22;1.42;;;;;;;16.50;70.03;98922.31;5109354;28;20075;-71
2022/09/10 00:52:31;;;;;;;2.22;1.42;;;;;;;16.56;69.57;98921.78;5109567;28;20052;-72
2022/09/10 00:54:59;;;;;;;5.47;1.75;;;;;;;16.51;69.77;98917.81;5109615;28;20066;-72
2022/09/10 00:57:28;;;;;;;1.90;1.40;;;;;;;16.53;70.31;98915.84;5075486;28;20063;-72
2022/09/10 01:00:00;;;;;;;3.75;1.50;;;;;;;16.52;69.73;98911.50;5109024;28;20063;-72
2022/09/10 01:02:27;;;;;;;5.47;1.67;;;;;;;16.26;70.01;98903.88;5109033;28;20048;-72
2022/09/10 01:04:58;;;;;;;2.63;1.70;;;;;;;16.40;70.05;98916.06;5109450;28;20197;-72
2022/09/10 01:07:27;;;;;;;2.30;1.30;;;;;;;16.40;69.85;98907.19;5109235;28;20340;-72
2022/09/10 01:09:57;;;;;;;2.92;1.52;;;;;;;16.27;70.08;98908.25;5109246;28;20055;-72
2022/09/10 01:12:45;;;;;;;2.60;1.60;;;;;;;16.23;70.29;98897.94;5092111;28;20200;-72
2022/09/10 01:15:26;;;;;;;3.35;1.52;;;;;;;15.73;70.96;98836.28;5109197;28;20232;-71
2022/09/10 01:18:10;;;;;;;3.42;1.60;;;;;;;15.59;71.00;98804.50;5108880;28;20051;-72
2022/09/10 01:21:00;;;;;;;3.13;1.65;;;;;;;16.22;70.46;98882.88;5108981;28;20351;-72
2022/09/10 01:24:04;;;;;;;3.08;1.35;;;;;;;16.27;70.44;98873.50;5108548;28;20335;-73
2022/09/10 01:26:50;;;;;;;4.13;1.73;;;;;;;16.29;70.18;98876.03;5108448;28;20055;-72
2022/09/10 01:29:24;;;;;;;2.50;1.40;;;;;;;16.32;70.22;98865.91;5108784;28;20063;-72
2022/09/10 01:31:55;;;;;;;2.75;1.50;;;;;;;16.31;70.41;98866.06;5108928;28;20265;-71
2022/09/10 01:34:29;;;;;;;2.95;1.60;;;;;;;16.33;70.34;98866.75;5108704;28;20056;-71
2022/09/10 01:37:02;;;;;;;3.08;1.45;;;;;;;16.27;70.10;98865.47;5108775;28;20056;-72
2022/09/10 01:39:30;;;;;;;2.50;1.50;;;;;;;16.30;70.19;98859.00;5108803;28;20055;-72
2022/09/10 01:41:58;;;;;;;3.03;1.48;;;;;;;16.31;70.32;98863.38;5108158;28;20063;-72
2022/09/10 01:44:45;;;;;;;2.38;1.50;;;;;;;16.32;70.35;98875.78;5108534;28;20292;-73
2022/09/10 01:47:20;;;;;;;2.53;1.50;;;;;;;16.19;70.21;98881.31;5108411;28;20055;-71
2022/09/10 01:50:04;;;;;;;3.92;1.80;;;;;;;16.11;70.38;98878.47;5108461;28;20065;-71
2022/09/10 01:52:45;;;;;;;2.90;1.50;;;;;;;15.93;70.91;98880.88;5108587;28;20052;-71
2022/09/10 01:55:23;;;;;;;3.40;1.48;;;;;;;15.65;71.27;98831.59;5108130;28;20062;-71
2022/09/10 01:57:58;;;;;;;3.00;1.60;;;;;;;15.85;71.31;98878.00;5107962;28;20051;-71
2022/09/10 02:00:27;;;;;;;2.97;1.60;;;;;;;15.74;71.70;98853.16;5107658;28;20036;-72
2022/09/10 02:02:59;;;;;;;2.80;1.65;;;;;;;15.93;71.65;98880.03;5107894;28;20052;-72
2022/09/10 02:05:30;;;;;;;2.30;1.33;;;;;;;15.82;72.02;98878.25;5108129;28;20067;-72
2022/09/10 02:08:01;;;;;;;2.45;1.65;;;;;;;15.56;71.39;98818.97;5108010;28;20056;-71
2022/09/10 02:10:28;;;;;;;2.55;1.60;;;;;;;16.01;71.81;98878.41;5107963;28;20219;-71
2022/09/10 02:12:56;;;;;;;2.53;1.90;;;;;;;16.12;71.51;98879.31;5107678;28;20048;-72
2022/09/10 02:15:26;;;;;;;2.75;1.60;;;;;;;16.18;70.93;98871.59;5107766;28;20064;-72
2022/09/10 02:17:55;;;;;;;2.30;1.50;;;;;;;16.19;71.36;98867.94;5107439;28;20063;-71
2022/09/10 02:20:23;;;;;;;2.97;1.80;;;;;;;16.19;71.01;98869.78;5107838;28;20216;-72
2022/09/10 02:22:53;;;;;;;3.13;1.90;;;;;;;15.85;70.79;98813.03;5107374;28;20052;-73
2022/09/10 02:25:22;;;;;;;2.80;1.70;;;;;;;16.28;71.08;98861.81;5107854;28;20052;-71
2022/09/10 02:27:50;;;;;;;4.38;2.20;;;;;;;16.35;70.91;98856.78;5107388;28;20328;-72
2022/09/10 02:30:19;;;;;;;2.25;1.50;;;;;;;16.33;71.07;98859.59;5107773;28;20059;-72
2022/09/10 02:32:46;;;;;;;4.65;2.60;;;;;;;16.39;70.58;98852.88;5107731;28;20055;-72
2022/09/10 02:35:15;;;;;;;3.83;2.55;;;;;;;16.40;70.63;98854.56;5107562;28;20056;-71
2022/09/10 02:37:43;;;;;;;3.45;1.90;;;;;;;16.39;70.69;98850.19;5107538;28;20052;-72
2022/09/10 02:40:11;;;;;;;3.17;2.30;;;;;;;16.27;70.55;98853.94;5090186;28;20056;-72
2022/09/10 02:42:39;;;;;;;3.60;2.45;;;;;;;16.28;70.49;98859.13;5107345;28;20059;-71
2022/09/10 02:45:07;;;;;;;4.97;3.05;;;;;;;16.30;70.76;98849.16;5089586;28;20056;-71
2022/09/10 02:47:34;;;;;;;6.57;3.15;;;;;;;16.25;70.49;98863.91;5107299;28;20304;-72
2022/09/10 02:50:02;;;;;;;4.53;3.22;;;;;;;16.04;70.27;98834.53;5107108;28;20228;-72
2022/09/10 02:52:32;;;;;;;4.93;3.53;;;;;;;16.20;70.60;98855.44;5107241;28;20055;-71
2022/09/10 02:54:59;;;;;;;5.20;3.58;;;;;;;16.18;70.29;98865.41;5106971;28;20236;-71
2022/09/10 02:57:28;;;;;;;6.25;4.18;;;;;;;16.14;70.53;98866.66;5089545;28;20311;-71
2022/09/10 02:59:56;;;;;;;5.28;3.22;;;;;;;16.16;70.33;98870.91;5107101;28;20212;-71
2022/09/10 03:02:24;;;;;;;5.00;3.40;;;;;;;16.07;71.06;98857.47;5106579;28;20052;-71
2022/09/10 03:04:52;;;;;;;5.68;3.70;;;;;;;16.14;70.53;98854.13;5107084;28;20063;-71
2022/09/10 03:07:19;;;;;;;4.80;3.10;;;;;;;16.15;70.54;98863.84;5107007;28;20056;-72
2022/09/10 03:09:48;;;;;;;5.32;3.50;;;;;;;16.08;70.94;98833.28;5106329;28;20056;-71
2022/09/10 03:12:16;;;;;;;5.93;3.55;;;;;;;16.15;70.89;98863.84;5106822;28;20055;-71
2022/09/10 03:14:44;;;;;;;6.80;3.40;;;;;;;16.07;70.76;98844.94;5089474;28;20059;-71
2022/09/10 03:17:11;;;;;;;6.63;3.60;;;;;;;16.04;70.60;98848.72;5106330;28;20063;-72
2022/09/10 03:19:39;;;;;;;6.97;3.47;;;;;;;16.18;70.89;98868.09;5106442;28;20316;-71
2022/09/10 03:22:06;;;;;;;6.35;4.00;;;;;;;16.02;70.94;98861.38;5106624;28;20056;-71
2022/09/10 03:24:34;;;;;;;6.85;3.08;;;;;;;15.94;71.42;98861.19;5106153;28;20052;-71
2022/09/10 03:27:03;;;;;;;7.82;4.00;;;;;;;15.80;72.00;98869.53;5106650;28;20189;-71
2022/09/10 03:29:31;;;;;;;6.07;4.57;;;;;;;15.60;72.81;98867.63;5106510;28;20118;-71
2022/09/10 03:31:58;;;;;;;6.15;3.95;;;;;;;15.66;72.58;98862.66;5106420;28;20059;-71
2022/09/10 03:34:25;;;;;;;5.55;3.72;;;;;;;15.70;72.34;98864.09;5106518;28;20319;-71
2022/09/10 03:36:53;;;;;;;4.90;3.92;;;;;;;15.75;72.51;98870.88;5106291;28;20062;-71
2022/09/10 03:39:21;;;;;;;7.25;4.80;;;;;;;15.69;72.86;98862.41;5106293;28;20063;-71
2022/09/10 03:41:49;;;;;;;6.53;4.68;;;;;;;15.65;72.70;98860.97;5106396;28;20051;-71
2022/09/10 03:44:17;;;;;;;7.32;5.70;;;;;;;15.48;72.67;98832.13;5105848;28;20227;-71
2022/09/10 03:46:47;;;;;;;9.25;6.13;;;;;;;15.62;72.54;98857.69;5106276;28;20318;-71
2022/09/10 03:49:15;;;;;;;8.10;6.35;;;;;;;15.51;72.98;98853.22;5106214;28;20063;-71
2022/09/10 03:51:43;;;;;;;6.10;4.85;;;;;;;15.53;72.93;98853.09;5088127;28;20083;-71
2022/09/10 03:54:12;;;;;;;7.70;5.53;;;;;;;15.42;73.20;98853.16;5106035;28;20052;-71
2022/09/10 03:56:40;;;;;;;7.22;5.00;;;;;;;15.49;73.08;98862.34;5105849;28;20052;-71
2022/09/10 03:59:08;;;;;;;7.10;5.55;;;;;;;15.51;73.34;98860.41;5105736;28;20055;-71
2022/09/10 04:01:36;;;;;;;7.63;5.53;;;;;;;15.44;73.15;98852.03;5105740;28;20066;-71
2022/09/10 04:04:04;;;;;;;6.80;5.43;;;;;;;15.39;73.46;98852.44;5105924;28;20062;-71
2022/09/10 04:06:32;;;;;;;9.95;4.75;;;;;;;15.54;72.89;98862.81;5105826;28;20066;-71
2022/09/10 04:09:02;;;;;;;6.93;5.25;;;;;;;15.57;72.87;98860.72;5106457;28;20091;-70
2022/09/10 04:11:29;;;;;;;7.22;5.03;;;;;;;15.50;73.04;98869.38;5105893;28;20036;-71
2022/09/10 04:13:57;;;;;;;7.70;4.82;;;;;;;15.47;73.22;98866.97;5105685;28;20051;-71
2022/09/10 04:16:24;;;;;;;8.23;5.55;;;;;;;15.39;73.50;98873.78;5105577;28;20296;-71
2022/09/10 04:18:54;;;;;;;7.40;5.47;;;;;;;15.40;73.50;98867.47;5084278;28;20067;-71
2022/09/10 04:21:22;;;;;;;7.55;5.47;;;;;;;15.39;73.33;98880.94;5085039;28;20312;-71
2022/09/10 04:23:54;;;;;;;6.88;5.38;;;;;;;15.41;73.45;98873.66;5085301;28;20181;-71
2022/09/10 04:26:22;;;;;;;6.25;4.68;;;;;;;15.52;73.01;98872.78;5085498;28;20053;-71
2022/09/10 04:28:50;;;;;;;8.55;4.85;;;;;;;15.64;72.69;98869.06;5085340;28;20055;-71
2022/09/10 04:31:17;;;;;;;6.60;4.85;;;;;;;15.60;72.41;98867.63;5084674;28;20217;-71
2022/09/10 04:33:44;;;;;;;6.22;4.07;;;;;;;15.59;72.58;98869.47;5085273;28;20103;-71
2022/09/10 04:36:13;;;;;;;5.13;4.07;;;;;;;15.53;72.47;98871.78;5085540;28;20205;-71
2022/09/10 04:38:42;;;;;;;7.85;5.47;;;;;;;15.48;72.53;98868.66;5085141;28;20324;-71
2022/09/10 04:41:09;;;;;;;6.45;4.63;;;;;;;15.50;72.43;98861.38;5085046;28;20057;-71
2022/09/10 04:43:37;;;;;;;4.75;3.88;;;;;;;15.52;72.25;98870.09;5085186;28;20052;-71
2022/09/10 04:46:05;;;;;;;6.38;3.88;;;;;;;14.78;72.06;98744.53;5085328;28;20052;-71
2022/09/10 04:48:33;;;;;;;6.47;4.32;;;;;;;15.56;72.05;98861.72;5084577;28;20075;-71
2022/09/10 04:51:00;;;;;;;5.45;3.78;;;;;;;15.63;71.99;98856.69;5085334;28;20304;-71
2022/09/10 04:53:30;;;;;;;4.60;3.53;;;;;;;15.66;71.94;98860.00;5085034;28;20052;-71
2022/09/10 04:55:57;;;;;;;4.53;3.10;;;;;;;15.71;71.24;98862.28;5085203;28;20317;-71
2022/09/10 04:58:25;;;;;;;5.47;3.75;;;;;;;15.57;71.75;98860.72;5085187;28;20056;-71
2022/09/10 05:00:55;;;;;;;5.63;3.75;;;;;;;15.55;71.76;98865.34;5085155;28;20212;-71
2022/09/10 05:03:23;;;;;;;4.70;3.75;;;;;;;15.65;71.66;98860.97;5084330;28;20053;-71
2022/09/10 05:05:51;;;;;;;5.30;3.20;;;;;;;15.49;71.69;98828.47;5085110;28;20143;-71
2022/09/10 05:08:18;;;;;;;4.78;3.40;;;;;;;15.53;71.47;98861.13;5084731;28;20224;-71
2022/09/10 05:10:48;;;;;;;4.85;3.17;;;;;;;15.01;71.35;98764.84;5084583;28;20059;-71
2022/09/10 05:13:15;;;;;;;5.72;3.47;;;;;;;15.53;71.21;98859.28;5084940;28;20052;-71
2022/09/10 05:15:43;;;;;;;4.40;2.90;;;;;;;15.47;71.51;98870.47;5085003;28;20060;-71
2022/09/10 05:18:10;;;;;;;3.50;2.50;;;;;;;15.39;70.97;98856.91;5095706;28;20056;-71
2022/09/10 05:20:38;;;;;;;4.57;3.05;;;;;;;15.48;71.30;98876.69;5105028;28;20059;-71
2022/09/10 05:23:05;;;;;;;5.00;3.00;;;;;;;15.42;71.20;98867.34;5104962;28;20063;-71
2022/09/10 05:25:33;;;;;;;3.78;2.72;;;;;;;15.49;70.76;98867.69;5104885;28;20056;-71
2022/09/10 05:28:04;;;;;;;3.85;2.78;;;;;;;15.47;70.84;98866.97;5105014;28;20181;-71
2022/09/10 05:30:32;;;;;;;3.78;2.63;;;;;;;15.47;71.12;98877.66;5104946;28;20079;-71
2022/09/10 05:33:00;;;;;;;3.40;2.53;;;;;;;15.34;70.98;98880.47;5106534;28;20292;-71
2022/09/10 05:35:29;;;;;;;3.78;2.42;;;;;;;15.44;70.64;98865.41;5108296;28;20048;-72
2022/09/10 05:37:56;;;;;;;4.13;2.65;;;;;;;15.43;70.33;98863.69;5108744;28;20051;-71
2022/09/10 05:40:24;;;;;;;4.18;2.60;;;;;;;15.49;70.85;98868.53;5108789;28;20056;-71
2022/09/10 05:42:52;;;;;;;3.97;2.78;;;;;;;15.60;70.16;98876.50;5108437;28;20056;-71
2022/09/10 05:45:22;;;;;;;3.55;2.35;;;;;;;15.44;69.99;98851.19;5090734;28;20052;-71
2022/09/10 05:47:50;;;;;;;4.53;2.35;;;;;;;14.65;69.96;98720.69;5108522;28;20051;-71
2022/09/10 05:50:17;;;;;;;3.50;2.40;;;;;;;15.50;69.62;98880.91;5090542;28;20052;-71
2022/09/10 05:52:45;;;;;;;4.18;2.67;;;;;;;15.42;69.79;98894.06;5108260;28;20220;-71
2022/09/10 05:55:13;;;;;;;5.50;2.65;;;;;;;15.45;70.23;98880.44;5108505;28;20052;-71
2022/09/10 05:57:40;;;;;;;4.25;2.85;;;;;;;15.49;70.12;98883.72;5108156;28;20292;-72
2022/09/10 06:00:11;;;;;;;3.40;2.28;;;;;;;15.51;69.96;98887.94;5108156;28;20130;-72
2022/09/10 06:02:40;;;;;;;3.50;2.35;;;;;;;15.49;70.13;98891.72;5107938;28;20055;-71
2022/09/10 06:05:09;;;;;;;3.72;2.50;;;;;;;15.59;69.84;98892.66;5107848;28;20048;-71
2022/09/10 06:07:36;;;;;;;2.70;1.90;;;;;;;15.61;69.52;98898.72;5090287;28;20056;-71
2022/09/10 06:10:04;;;;;;;3.60;2.33;;;;;;;15.70;69.65;98895.31;5107828;28;20075;-71
2022/09/10 06:12:33;;;;;;;3.85;2.60;;;;;;;15.80;69.13;98898.06;5107936;28;20059;-71
2022/09/10 06:15:02;;;;;;;5.95;2.30;;;;;;;15.89;68.62;98892.78;5107461;28;20048;-70
2022/09/10 06:17:29;;;;;;;3.70;2.58;;;;;;;16.02;68.38;98895.28;5107344;28;20220;-71
2022/09/10 06:19:58;;;;;;;5.30;2.67;;;;;;;16.10;67.73;98897.31;5089922;28;20224;-70
2022/09/10 06:22:26;;;;;;;3.33;2.40;;;;;;;16.25;67.41;98909.34;5107729;28;20056;-70
2022/09/10 06:24:54;;;;;;;4.20;2.83;;;;;;;16.30;66.79;98899.97;5107726;28;20067;-70
2022/09/10 06:27:23;;;;;;;3.90;2.38;;;;;;;16.46;66.33;98898.66;5107700;28;20056;-71
2022/09/10 06:29:51;;;;;;;5.10;2.55;;;;;;;16.52;66.36;98887.41;5107392;28;20091;-70
2022/09/10 06:32:19;;;;;;;3.92;2.45;;;;;;;16.77;64.92;98900.38;5107169;28;20063;-71
2022/09/10 06:34:46;;;;;;;3.42;2.28;;;;;;;16.81;64.92;98908.97;5107094;28;20048;-71
2022/09/10 06:37:17;;;;;;;3.45;2.22;;;;;;;16.98;64.24;98908.34;5106980;28;20056;-71
2022/09/10 06:39:44;;;;;;;9.73;3.25;;;;;;;17.04;64.26;98902.44;5107565;28;20323;-71
2022/09/10 06:42:12;;;;;;;3.00;2.10;;;;;;;16.96;64.17;98908.47;5107332;28;20056;-71
2022/09/10 06:44:39;;;;;;;5.43;2.25;;;;;;;16.94;64.11;98885.50;5106610;28;20056;-71
2022/09/10 06:47:07;;;;;;;4.45;2.50;;;;;;;17.19;63.90;98913.63;5107155;28;20348;-71
2022/09/10 06:49:35;;;;;;;3.17;2.05;;;;;;;17.31;64.01;98908.03;5107116;28;20052;-71
2022/09/10 06:52:03;;;;;;;3.10;2.13;;;;;;;17.34;63.00;98920.31;5106775;28;20079;-71
2022/09/10 06:54:32;;;;;;;3.42;2.50;;;;;;;17.43;62.51;98919.47;5106540;28;20055;-71
2022/09/10 06:57:00;;;;;;;4.05;2.30;;;;;;;16.53;62.75;98744.66;5107142;28;20055;-71
2022/09/10 06:59:27;;;;;;;3.50;2.15;;;;;;;17.79;63.12;98931.41;5106976;28;20208;-71
2022/09/10 07:01:55;;;;;;;4.07;2.60;;;;;;;17.56;63.13;98928.09;5107034;28;20056;-71
2022/09/10 07:04:23;;;;;;;3.00;2.20;;;;;;;17.54;62.90;98908.63;5106687;28;20063;-71
2022/09/10 07:06:51;;;;;;;3.88;2.90;;;;;;;17.45;62.54;98876.47;5106864;28;20056;-71
2022/09/10 07:09:19;;;;;;;3.72;2.58;;;;;;;17.50;61.61;98884.94;5106702;28;20200;-71
2022/09/10 07:11:48;;;;;;;4.10;2.65;;;;;;;18.00;61.72;98943.81;5106427;28;20212;-71
2022/09/10 07:14:16;;;;;;;5.18;2.65;;;;;;;18.12;61.19;98948.03;5106610;28;20161;-71
2022/09/10 07:16:45;;;;;;;3.65;2.50;;;;;;;17.90;61.63;98907.13;5106534;28;20052;-71
2022/09/10 07:19:13;;;;;;;3.78;2.45;;;;;;;18.31;61.16;98944.50;5105971;28;20059;-71
2022/09/10 07:21:41;;;;;;;4.35;2.90;;;;;;;18.30;60.34;98948.16;5106106;28;20055;-71
2022/09/10 07:24:10;;;;;;;4.97;2.40;;;;;;;18.41;59.72;98940.81;5106182;28;20069;-71
2022/09/10 07:26:38;;;;;;;5.30;2.63;;;;;;;18.20;60.44;98889.19;5106029;28;20054;-71
2022/09/10 07:29:07;;;;;;;3.38;2.38;;;;;;;18.52;59.83;98934.47;5106162;28;20055;-71
2022/09/10 07:31:37;;;;;;;4.60;2.50;;;;;;;18.58;60.47;98929.38;5106526;28;20056;-71
2022/09/10 07:34:05;;;;;;;4.07;2.33;;;;;;;18.74;60.11;98928.75;5106324;28;20052;-71
2022/09/10 07:36:33;;;;;;;6.43;2.22;;;;;;;18.79;60.17;98907.69;5106396;28;20312;-71
2022/09/10 07:39:00;;;;;;;3.28;2.70;;;;;;;18.98;59.21;98925.53;5106244;28;20193;-72
2022/09/10 07:41:29;;;;;;;3.10;2.10;;;;;;;18.98;58.75;98938.13;5088300;28;20055;-71
2022/09/10 07:43:58;;;;;;;3.55;2.50;;;;;;;18.84;58.17;98894.66;5106045;28;20305;-71
2022/09/10 07:46:27;;;;;;;3.40;2.38;;;;;;;19.13;58.61;98932.13;5106113;28;20048;-72
2022/09/10 07:48:56;;;;;;;3.60;2.60;;;;;;;18.80;59.29;98860.19;5106228;28;20040;-71
2022/09/10 07:51:26;;;;;;;4.95;2.85;;;;;;;19.26;58.51;98923.72;5105944;28;20052;-72
2022/09/10 07:53:54;;;;;;;5.07;2.25;;;;;;;19.22;56.82;98922.31;5105919;28;20063;-71
2022/09/10 07:56:23;;;;;;;4.07;2.42;;;;;;;19.42;57.83;98932.00;5104659;28;20327;-72
2022/09/10 07:58:51;;;;;;;4.15;2.47;;;;;;;19.52;57.99;98929.25;5105428;28;20216;-71
2022/09/10 08:01:19;;;;;;;4.75;2.63;;;;;;;19.37;57.04;98938.78;5105666;28;20066;-72
2022/09/10 08:03:48;;;;;;;4.72;2.33;;;;;;;19.39;57.24;98920.69;5105902;28;20060;-71
2022/09/10 08:06:17;;;;;;;3.63;2.17;;;;;;;19.42;57.19;98915.88;5105569;28;20055;-71
2022/09/10 08:08:44;;;;;;;4.15;2.60;;;;;;;19.39;56.01;98915.31;5105485;28;20067;-71
2022/09/10 08:11:15;;;;;;;4.28;2.17;;;;;;;19.36;55.70;98923.66;5105154;28;20063;-71
2022/09/10 08:13:44;;;;;;;5.43;2.75;;;;;;;19.27;55.25;98911.97;5105686;28;20055;-71
2022/09/10 08:16:13;;;;;;;4.53;2.53;;;;;;;19.05;56.74;98904.31;5105789;28;20181;-72
2022/09/10 08:18:41;;;;;;;4.10;2.50;;;;;;;18.95;55.05;98876.66;5105123;28;20316;-72
2022/09/10 08:21:11;;;;;;;3.25;1.85;;;;;;;19.33;55.66;98930.16;5105681;28;20059;-72
2022/09/10 08:23:39;;;;;;;3.20;2.15;;;;;;;19.25;55.40;98919.31;5105185;28;20063;-71
2022/09/10 08:26:08;;;;;;;3.40;1.80;;;;;;;19.35;55.31;98925.50;5105335;28;20204;-72
2022/09/10 08:28:36;;;;;;;3.03;2.08;;;;;;;19.45;55.59;98925.47;5105451;28;20056;-72
2022/09/10 08:31:06;;;;;;;4.60;2.47;;;;;;;19.28;54.91;98902.91;5105364;28;20062;-72
2022/09/10 08:33:35;;;;;;;5.13;2.10;;;;;;;19.24;55.55;98921.16;5104980;28;20052;-72
2022/09/10 08:36:04;;;;;;;3.78;1.75;;;;;;;19.40;54.56;98930.44;5105464;28;20365;-71
2022/09/10 08:38:35;;;;;;;3.63;2.08;;;;;;;19.42;54.82;98932.00;5087576;28;20044;-72
2022/09/10 08:41:12;;;;;;;2.60;1.90;;;;;;;19.57;53.52;98940.38;5105511;28;20357;-72
2022/09/10 08:43:43;;;;;;;2.55;1.73;;;;;;;19.50;53.67;98932.06;5105227;28;20097;-71
2022/09/10 08:46:21;;;;;;;3.72;1.80;;;;;;;19.63;54.25;98926.34;5104835;28;20056;-71
2022/09/10 08:48:53;;;;;;;3.05;2.00;;;;;;;19.79;54.31;98931.88;5105057;28;20056;-71
2022/09/10 08:51:27;;;;;;;5.65;2.40;;;;;;;19.86;53.76;98932.97;5105193;28;20316;-72
2022/09/10 08:53:59;;;;;;;2.90;1.80;;;;;;;19.90;52.57;98936.22;5105061;28;20081;-71
2022/09/10 08:56:28;;;;;;;2.88;1.85;;;;;;;19.94;54.25;98939.44;5104920;28;20316;-71
2022/09/10 08:59:02;;;;;;;3.30;2.03;;;;;;;19.83;53.09;98938.66;5104758;28;20060;-71
2022/09/10 09:01:36;;;;;;;4.15;2.22;;;;;;;19.74;53.28;98941.41;5105200;28;20064;-71
2022/09/10 09:04:09;;;;;;;2.60;1.80;;;;;;;19.66;53.78;98946.69;5104720;28;20101;-71
2022/09/10 09:06:42;;;;;;;3.55;2.00;;;;;;;19.81;54.18;98935.28;5105154;28;20060;-72
2022/09/10 09:09:13;;;;;;;6.00;2.15;;;;;;;19.93;54.19;98932.38;5107532;28;20067;-72
2022/09/10 09:11:49;;;;;;;2.90;1.80;;;;;;;20.07;52.42;98926.44;5108561;28;20116;-71
2022/09/10 09:14:46;;;;;;;3.47;2.22;;;;;;;20.17;52.22;98924.50;5108737;28;20056;-71
2022/09/10 09:17:29;;;;;;;2.97;1.90;;;;;;;20.26;51.80;98933.53;5107213;28;20060;-72
2022/09/10 09:20:07;;;;;;;3.63;2.17;;;;;;;19.95;51.05;98871.19;5075733;28;20346;-71
2022/09/10 09:22:44;;;;;;;3.05;1.70;;;;;;;20.42;52.28;98929.09;5108839;28;20036;-71
2022/09/10 09:25:22;;;;;;;3.13;1.80;;;;;;;20.55;50.95;98923.31;5108982;28;20150;-71
2022/09/10 09:27:54;;;;;;;4.10;2.30;;;;;;;20.47;52.46;98934.00;5108860;28;20062;-72
2022/09/10 09:30:26;;;;;;;2.90;1.85;;;;;;;20.37;52.06;98931.41;5108215;28;20064;-71
2022/09/10 09:32:57;;;;;;;3.30;1.80;;;;;;;20.29;51.89;98911.69;5108540;28;20113;-71
2022/09/10 09:35:31;;;;;;;3.80;1.92;;;;;;;19.72;51.78;98782.94;5108831;28;20081;-71
2022/09/10 09:38:16;;;;;;;6.00;2.67;;;;;;;20.77;51.58;98925.47;5108329;28;20052;-71
2022/09/10 09:40:48;;;;;;;3.90;2.03;;;;;;;20.76;51.26;98928.31;5108937;28;20044;-71
2022/09/10 09:43:27;;;;;;;3.33;1.85;;;;;;;20.56;51.08;98921.47;5108770;28;20117;-71
2022/09/10 09:45:54;;;;;;;3.08;1.70;;;;;;;20.47;51.45;98915.19;5091912;28;20056;-71
2022/09/10 09:48:23;;;;;;;2.50;1.67;;;;;;;20.41;51.86;98923.88;5108288;28;20073;-71
2022/09/10 09:50:53;;;;;;;3.85;2.00;;;;;;;20.46;53.55;98930.47;5108304;28;20055;-71
2022/09/10 09:53:24;;;;;;;6.40;2.90;;;;;;;20.59;53.38;98927.38;5107797;28;20243;-71
2022/09/10 09:55:55;;;;;;;3.65;2.08;;;;;;;20.54;51.90;98927.00;5107776;28;20097;-71
2022/09/10 09:58:32;;;;;;;2.40;1.70;;;;;;;20.57;51.16;98933.91;5108157;28;20059;-71
2022/09/10 10:01:22;;;;;;;3.35;1.50;;;;;;;20.67;50.61;98931.97;5107850;28;20093;-70
2022/09/10 10:03:57;;;;;;;3.83;1.67;;;;;;;20.61;51.14;98905.69;5107474;28;20086;-70
2022/09/10 10:06:27;;;;;;;4.30;1.80;;;;;;;20.81;50.92;98920.59;5107496;28;20094;-69
2022/09/10 10:09:04;;;;;;;3.75;1.63;;;;;;;20.80;51.13;98898.22;5107477;28;20056;-69
2022/09/10 10:11:53;;;;;;;2.40;1.42;;;;;;;20.97;49.15;98912.59;5108213;28;20296;-69
2022/09/10 10:14:26;;;;;;;2.70;1.50;;;;;;;21.14;51.10;98921.63;5107530;28;20086;-69
2022/09/10 10:16:54;;;;;;;4.10;1.73;;;;;;;21.10;49.65;98915.72;5107408;28;20078;-71
2022/09/10 10:19:31;;;;;;;3.78;1.38;;;;;;;21.14;49.36;98906.31;5106861;28;20106;-70
2022/09/10 10:22:20;;;;;;;2.42;1.50;;;;;;;21.21;48.83;98901.09;5107418;28;20239;-70
2022/09/10 10:24:50;;;;;;;2.30;1.52;;;;;;;21.40;48.75;98911.63;5107294;28;20052;-69
2022/09/10 10:27:25;;;;;;;3.70;1.35;;;;;;;21.48;47.27;98907.25;5106874;28;20055;-69
2022/09/10 10:29:53;;;;;;;2.47;1.45;;;;;;;;;;5107020;28;20063;-69
2022/09/10 10:32:20;;;;;;;5.20;3.67;;;;;;;21.51;49.08;98904.22;5106883;28;20060;-69
2022/09/10 10:34:59;;;;;;;12.63;7.53;;;;;;;21.42;49.92;98897.97;5106968;28;20056;-69
2022/09/10 10:37:36;;;;;;;4.00;2.72;;;;;;;21.44;49.14;98910.28;5089471;28;20105;-70
2022/09/10 10:40:13;;;;;;;3.33;2.15;;;;;;;;;;5089135;28;20113;-70
2022/09/10 10:42:49;;;;;;;2.92;1.50;;;;;;;21.38;48.88;98910.09;5106763;28;20056;-72
2022/09/10 10:45:37;;;;;;;1.92;1.40;;;;;;;21.23;47.89;98909.03;5106575;28;20373;-70
2022/09/10 10:48:11;;;;;;;3.92;1.48;;;;;;;21.21;47.68;98902.97;5107032;28;20304;-71
2022/09/10 10:50:44;;;;;;;;;;;;;;;21.07;46.55;98888.25;5107856;28;20036;-70
2022/09/10 10:53:21;;;;;;;2.00;1.10;;;;;;;21.13;46.51;98893.84;5106912;28;19969;-70
2022/09/10 10:55:56;;;;;;;2.35;1.30;;;;;;;21.17;47.04;98893.50;5106681;28;20316;-71
2022/09/10 10:58:41;;;;;;;2.75;1.42;;;;;;;21.27;46.53;98878.06;5106584;28;20097;-71
2022/09/10 11:01:25;;;;;;;2.25;1.38;;;;;;;21.37;47.06;98881.44;5106873;28;20086;-71
2022/09/10 11:04:01;;;;;;;2.50;1.48;;;;;;;21.32;46.09;98852.28;5106941;28;20060;-71
2022/09/10 11:06:35;;;;;;;2.58;1.27;;;;;;;21.51;46.62;98863.78;5106662;28;20101;-71
2022/09/10 11:09:07;;;;;;;1.83;1.10;;;;;;;21.53;45.12;98865.31;5106666;28;20081;-71
2022/09/10 11:11:44;;;;;;;2.67;1.30;;;;;;;21.51;46.30;98859.25;5106474;28;20094;-71
2022/09/10 11:14:21;;;;;;;2.58;1.30;;;;;;;21.59;45.71;98861.94;5106280;28;20056;-72
2022/09/10 11:16:54;;;;;;;1.65;1.23;;;;;;;21.67;45.85;98869.19;5106503;28;20089;-71
2022/09/10 11:19:30;;;;;;;2.30;1.40;;;;;;;21.65;44.34;98882.00;5086488;28;20040;-71
2022/09/10 11:22:03;;;;;;;3.13;1.40;;;;;;;21.18;45.28;98850.25;5068478;28;20243;-71
2022/09/10 11:24:36;;;;;;;2.88;1.38;;;;;;;21.35;45.91;98884.31;5085869;28;20053;-71
2022/09/10 11:27:09;;;;;;;1.95;1.20;;;;;;;21.31;46.47;98869.47;5085962;28;20107;-71
2022/09/10 11:29:42;;;;;;;3.00;1.40;;;;;;;20.77;46.08;98798.06;5086115;28;20040;-72
2022/09/10 11:32:19;;;;;;;3.15;1.83;;;;;;;21.26;46.27;98876.38;5085813;28;20251;-71
2022/09/10 11:34:54;;;;;;;3.03;1.40;;;;;;;21.18;46.10;98835.91;5085926;28;20056;-71
2022/09/10 11:37:30;;;;;;;3.50;1.60;;;;;;;21.50;45.90;98865.63;5086029;28;20106;-71
2022/09/10 11:40:00;;;;;;;2.95;1.50;;;;;;;21.68;46.80;98866.34;5085985;28;20369;-71
2022/09/10 11:42:34;;;;;;;1.95;1.30;;;;;;;21.79;46.82;98865.16;5085770;28;20044;-71
2022/09/10 11:45:18;;;;;;;3.45;1.60;;;;;;;21.84;46.02;98860.16;5085539;28;20052;-71
2022/09/10 11:47:59;;;;;;;2.90;1.77;;;;;;;21.76;46.13;98855.56;5085781;28;20052;-71
2022/09/10 11:50:32;;;;;;;3.03;1.60;;;;;;;21.93;45.28;98871.78;5085296;28;20064;-71
2022/09/10 11:53:00;;;;;;;2.60;1.70;;;;;;;21.81;45.28;98882.06;5085354;28;20057;-71